Time,TemperatureF,DewpointF,PressureIn,WindDirection,WindDirectionDegrees,WindSpeedMPH,WindSpeedGustMPH,Humidity,HourlyPrecipIn,Conditions,Clouds,dailyrainin,SoftwareType,DateUTC
2013-02-19 00:01:00,18.1,6.2,29.65,WSW,247,0.0,0.0,59,0.00,,,0.00,WUHU21623XXSP,2013-02-19 06:01:00,
2013-02-19 00:06:00,18.1,6.2,29.65,WSW,247,0.0,0.0,59,0.00,,,0.00,WUHU21623XXSP,2013-02-19 06:06:00,
2013-02-19 00:11:00,17.8,5.4,29.66,WSW,247,0.0,0.0,58,0.00,,,0.00,WUHU21623XXSP,2013-02-19 06:11:00,
2013-02-19 00:16:00,17.2,4.5,29.66,NW,315,0.0,0.0,57,0.00,,,0.00,WUHU21623XXSP,2013-02-19 06:16:00,
2013-02-19 00:21:00,17.1,4.7,29.66,NNW,337,0.0,0.0,58,0.00,,,0.00,WUHU21623XXSP,2013-02-19 06:21:00,
2013-02-19 00:26:00,16.9,4.6,29.67,West,270,0.0,0.0,58,0.00,,,0.00,WUHU21623XXSP,2013-02-19 06:26:00,
2013-02-19 00:31:00,16.5,3.8,29.67,West,270,0.0,0.0,57,0.00,,,0.00,WUHU21623XXSP,2013-02-19 06:31:00,
2013-02-19 00:36:00,16.5,3.8,29.67,WNW,292,0.0,0.0,57,0.00,,,0.00,WUHU21623XXSP,2013-02-19 06:36:00,
2013-02-19 00:41:00,16.3,3.7,29.67,West,270,0.0,0.0,57,0.00,,,0.00,WUHU21623XXSP,2013-02-19 06:41:00,
2013-02-19 00:46:00,16.2,3.5,29.67,WSW,247,0.0,0.0,57,0.00,,,0.00,WUHU21623XXSP,2013-02-19 06:46:00,
2013-02-19 00:51:00,16.0,2.9,29.67,WSW,247,0.0,0.0,56,0.00,,,0.00,WUHU21623XXSP,2013-02-19 06:51:00,
2013-02-19 00:56:00,15.6,2.2,29.68,West,270,0.0,0.0,55,0.00,,,0.00,WUHU21623XXSP,2013-02-19 06:56:00,
2013-02-19 01:01:00,15.3,1.9,29.68,WNW,292,0.0,0.0,55,0.00,,,0.00,WUHU21623XXSP,2013-02-19 07:01:00,
2013-02-19 01:06:00,15.1,1.9,29.68,SW,225,0.0,0.0,54,0.00,,,0.00,WUHU21623XXSP,2013-02-19 07:06:00,
2013-02-19 01:11:00,14.9,1.1,29.68,West,270,0.0,0.0,54,0.00,,,0.00,WUHU21623XXSP,2013-02-19 07:11:00,
2013-02-19 01:16:00,14.9,1.1,29.68,SW,225,0.0,0.0,54,0.00,,,0.00,WUHU21623XXSP,2013-02-19 07:16:00,
2013-02-19 01:21:00,14.7,1.0,29.68,NW,315,0.0,0.0,54,0.00,,,0.00,WUHU21623XXSP,2013-02-19 07:21:00,
2013-02-19 01:26:00,14.7,1.4,29.68,WSW,247,0.0,0.0,55,0.00,,,0.00,WUHU21623XXSP,2013-02-19 07:26:00,
2013-02-19 01:31:00,14.5,1.2,29.69,WSW,247,0.0,0.0,55,0.00,,,0.00,WUHU21623XXSP,2013-02-19 07:31:00,
2013-02-19 01:36:00,14.4,0.6,29.69,NW,315,0.0,0.0,54,0.00,,,0.00,WUHU21623XXSP,2013-02-19 07:36:00,
2013-02-19 01:41:00,14.2,0.1,29.69,WSW,247,0.0,0.0,53,0.00,,,0.00,WUHU21623XXSP,2013-02-19 07:41:00,
2013-02-19 01:46:00,13.6,-0.5,29.69,West,270,0.0,0.0,53,0.00,,,0.00,WUHU21623XXSP,2013-02-19 07:46:00,
2013-02-19 01:51:00,13.6,-0.5,29.70,WNW,292,0.0,0.0,53,0.00,,,0.00,WUHU21623XXSP,2013-02-19 07:51:00,
2013-02-19 01:56:00,13.5,-0.6,29.70,WNW,292,0.0,0.0,53,0.00,,,0.00,WUHU21623XXSP,2013-02-19 07:56:00,
2013-02-19 02:01:00,13.1,-1.0,29.70,WSW,247,0.0,0.0,53,0.00,,,0.00,WUHU21623XXSP,2013-02-19 08:01:00,
2013-02-19 02:06:00,13.1,-1.0,29.70,West,270,0.0,0.0,53,0.00,,,0.00,WUHU21623XXSP,2013-02-19 08:06:00,
2013-02-19 02:11:00,13.1,-1.0,29.71,West,270,0.0,0.0,53,0.00,,,0.00,WUHU21623XXSP,2013-02-19 08:11:00,
2013-02-19 02:16:00,13.1,-0.6,29.71,WNW,292,0.0,0.0,54,0.00,,,0.00,WUHU21623XXSP,2013-02-19 08:16:00,
2013-02-19 02:21:00,13.1,-0.6,29.71,West,270,0.0,0.0,54,0.00,,,0.00,WUHU21623XXSP,2013-02-19 08:21:00,
2013-02-19 02:26:00,13.1,-0.6,29.71,West,270,0.0,0.0,54,0.00,,,0.00,WUHU21623XXSP,2013-02-19 08:26:00,
2013-02-19 02:31:00,12.9,-0.7,29.71,NW,315,0.0,0.0,54,0.00,,,0.00,WUHU21623XXSP,2013-02-19 08:31:00,
2013-02-19 02:36:00,12.7,-0.9,29.71,West,270,0.0,0.0,54,0.00,,,0.00,WUHU21623XXSP,2013-02-19 08:36:00,
2013-02-19 02:41:00,12.9,-0.3,29.71,WSW,247,0.0,0.0,55,0.00,,,0.00,WUHU21623XXSP,2013-02-19 08:41:00,
2013-02-19 02:46:00,12.7,-0.5,29.71,WSW,247,0.0,0.0,55,0.00,,,0.00,WUHU21623XXSP,2013-02-19 08:46:00,
2013-02-19 02:51:00,12.6,-1.1,29.72,WNW,292,0.0,0.0,54,0.00,,,0.00,WUHU21623XXSP,2013-02-19 08:51:00,
2013-02-19 02:56:00,12.4,-1.2,29.72,SW,225,0.0,0.0,54,0.00,,,0.00,WUHU21623XXSP,2013-02-19 08:56:00,
2013-02-19 03:01:00,11.8,-2.1,29.72,NW,315,0.0,0.0,53,0.00,,,0.00,WUHU21623XXSP,2013-02-19 09:01:00,
2013-02-19 03:06:00,11.8,-2.1,29.72,WNW,292,0.0,0.0,53,0.00,,,0.00,WUHU21623XXSP,2013-02-19 09:06:00,
2013-02-19 03:11:00,11.8,-2.1,29.72,WNW,292,0.0,0.0,53,0.00,,,0.00,WUHU21623XXSP,2013-02-19 09:11:00,
2013-02-19 03:16:00,11.7,-2.3,29.72,WNW,292,0.0,0.0,53,0.00,,,0.00,WUHU21623XXSP,2013-02-19 09:16:00,
2013-02-19 03:21:00,11.3,-2.2,29.73,WNW,292,0.0,0.0,54,0.00,,,0.00,WUHU21623XXSP,2013-02-19 09:21:00,
2013-02-19 03:26:00,11.3,-2.6,29.73,West,270,0.0,0.0,53,0.00,,,0.00,WUHU21623XXSP,2013-02-19 09:26:00,
2013-02-19 03:31:00,11.3,-2.6,29.73,West,270,0.0,0.0,53,0.00,,,0.00,WUHU21623XXSP,2013-02-19 09:31:00,
2013-02-19 03:36:00,11.1,-2.4,29.73,NNW,337,0.0,0.0,54,0.00,,,0.00,WUHU21623XXSP,2013-02-19 09:36:00,
2013-02-19 03:41:00,10.8,-2.7,29.73,WNW,292,0.0,0.0,54,0.00,,,0.00,WUHU21623XXSP,2013-02-19 09:41:00,
2013-02-19 03:46:00,10.8,-2.7,29.73,West,270,0.0,0.0,54,0.00,,,0.00,WUHU21623XXSP,2013-02-19 09:46:00,
2013-02-19 03:51:00,10.6,-3.2,29.73,WSW,247,0.0,0.0,53,0.00,,,0.00,WUHU21623XXSP,2013-02-19 09:51:00,
2013-02-19 03:56:00,10.6,-2.9,29.74,WNW,292,0.0,0.0,54,0.00,,,0.00,WUHU21623XXSP,2013-02-19 09:56:00,
2013-02-19 04:01:00,10.6,-2.9,29.74,WNW,292,0.0,0.0,54,0.00,,,0.00,WUHU21623XXSP,2013-02-19 10:01:00,
2013-02-19 04:06:00,10.4,-3.4,29.74,WSW,247,0.0,0.0,53,0.00,,,0.00,WUHU21623XXSP,2013-02-19 10:06:00,
2013-02-19 04:11:00,10.6,-2.9,29.75,WSW,247,0.0,0.0,54,0.00,,,0.00,WUHU21623XXSP,2013-02-19 10:11:00,
2013-02-19 04:16:00,10.6,-2.9,29.75,WSW,247,0.0,0.0,54,0.00,,,0.00,WUHU21623XXSP,2013-02-19 10:16:00,
2013-02-19 04:21:00,10.2,-3.2,29.75,WSW,247,0.0,0.0,54,0.00,,,0.00,WUHU21623XXSP,2013-02-19 10:21:00,
2013-02-19 04:26:00,9.9,-3.9,29.75,WNW,292,0.0,0.0,53,0.00,,,0.00,WUHU21623XXSP,2013-02-19 10:26:00,
2013-02-19 04:31:00,9.5,-4.7,29.75,WSW,247,0.0,0.0,52,0.00,,,0.00,WUHU21623XXSP,2013-02-19 10:31:00,
2013-02-19 04:36:00,9.5,-4.7,29.75,West,270,0.0,0.0,52,0.00,,,0.00,WUHU21623XXSP,2013-02-19 10:36:00,
2013-02-19 04:41:00,9.5,-4.7,29.75,WNW,292,0.0,0.0,52,0.00,,,0.00,WUHU21623XXSP,2013-02-19 10:41:00,
2013-02-19 04:46:00,9.5,-4.7,29.75,WSW,247,0.0,0.0,52,0.00,,,0.00,WUHU21623XXSP,2013-02-19 10:46:00,
2013-02-19 04:51:00,9.5,-4.7,29.76,West,270,0.0,0.0,52,0.00,,,0.00,WUHU21623XXSP,2013-02-19 10:51:00,
2013-02-19 04:56:00,9.3,-4.9,29.76,WNW,292,0.0,0.0,52,0.00,,,0.00,WUHU21623XXSP,2013-02-19 10:56:00,
2013-02-19 05:01:00,9.3,-4.9,29.77,WNW,292,0.0,0.0,52,0.00,,,0.00,WUHU21623XXSP,2013-02-19 11:01:00,
2013-02-19 05:06:00,9.3,-4.9,29.77,NW,315,0.0,0.0,52,0.00,,,0.00,WUHU21623XXSP,2013-02-19 11:06:00,
2013-02-19 05:11:00,9.3,-4.9,29.77,West,270,0.0,0.0,52,0.00,,,0.00,WUHU21623XXSP,2013-02-19 11:11:00,
2013-02-19 05:16:00,9.3,-4.9,29.77,WNW,292,0.0,0.0,52,0.00,,,0.00,WUHU21623XXSP,2013-02-19 11:16:00,
2013-02-19 05:21:00,9.0,-5.2,29.78,WNW,292,0.0,0.0,52,0.00,,,0.00,WUHU21623XXSP,2013-02-19 11:21:00,
2013-02-19 05:26:00,9.0,-5.2,29.78,WSW,247,0.0,0.0,52,0.00,,,0.00,WUHU21623XXSP,2013-02-19 11:26:00,
2013-02-19 05:31:00,9.0,-5.2,29.78,WSW,247,0.0,0.0,52,0.00,,,0.00,WUHU21623XXSP,2013-02-19 11:31:00,
2013-02-19 05:36:00,8.8,-5.4,29.78,WNW,292,0.0,0.0,52,0.00,,,0.00,WUHU21623XXSP,2013-02-19 11:36:00,
2013-02-19 05:41:00,8.8,-5.8,29.78,NNE,22,0.0,0.0,51,0.00,,,0.00,WUHU21623XXSP,2013-02-19 11:41:00,
2013-02-19 05:46:00,8.6,-6.0,29.79,West,270,0.0,0.0,51,0.00,,,0.00,WUHU21623XXSP,2013-02-19 11:46:00,
2013-02-19 05:51:00,8.2,-6.7,29.79,SW,225,0.0,0.0,50,0.00,,,0.00,WUHU21623XXSP,2013-02-19 11:51:00,
2013-02-19 05:56:00,8.1,-6.8,29.79,West,270,0.0,0.0,50,0.00,,,0.00,WUHU21623XXSP,2013-02-19 11:56:00,
2013-02-19 06:01:00,8.1,-6.8,29.79,SW,225,0.0,0.0,50,0.00,,,0.00,WUHU21623XXSP,2013-02-19 12:01:00,
2013-02-19 06:06:00,7.9,-6.6,29.79,NW,315,0.0,0.0,51,0.00,,,0.00,WUHU21623XXSP,2013-02-19 12:06:00,
2013-02-19 06:11:00,7.7,-7.1,29.79,WSW,247,0.0,0.0,50,0.00,,,0.00,WUHU21623XXSP,2013-02-19 12:11:00,
2013-02-19 06:16:00,7.5,-6.9,29.79,WSW,247,0.0,0.0,51,0.00,,,0.00,WUHU21623XXSP,2013-02-19 12:16:00,
2013-02-19 06:21:00,7.5,-6.9,29.80,West,270,0.0,0.0,51,0.00,,,0.00,WUHU21623XXSP,2013-02-19 12:21:00,
2013-02-19 06:26:00,7.2,-7.3,29.80,West,270,0.0,0.0,51,0.00,,,0.00,WUHU21623XXSP,2013-02-19 12:26:00,
2013-02-19 06:31:00,7.0,-7.4,29.80,NW,315,0.0,0.0,51,0.00,,,0.00,WUHU21623XXSP,2013-02-19 12:31:00,
2013-02-19 06:36:00,7.0,-7.4,29.81,WNW,292,0.0,0.0,51,0.00,,,0.00,WUHU21623XXSP,2013-02-19 12:36:00,
2013-02-19 06:41:00,6.8,-7.6,29.81,SSE,157,0.0,0.0,51,0.00,,,0.00,WUHU21623XXSP,2013-02-19 12:41:00,
2013-02-19 06:46:00,6.6,-8.1,29.81,WSW,247,0.0,0.0,50,0.00,,,0.00,WUHU21623XXSP,2013-02-19 12:46:00,
2013-02-19 06:51:00,6.4,-8.3,29.81,WSW,247,0.0,0.0,50,0.00,,,0.00,WUHU21623XXSP,2013-02-19 12:51:00,
2013-02-19 06:56:00,6.6,-8.1,29.81,West,270,0.0,0.0,50,0.00,,,0.00,WUHU21623XXSP,2013-02-19 12:56:00,
2013-02-19 07:01:00,6.4,-8.3,29.82,West,270,0.0,0.0,50,0.00,,,0.00,WUHU21623XXSP,2013-02-19 13:01:00,
2013-02-19 07:06:00,6.3,-8.4,29.82,NW,315,0.0,0.0,50,0.00,,,0.00,WUHU21623XXSP,2013-02-19 13:06:00,
2013-02-19 07:11:00,6.4,-8.3,29.82,WSW,247,0.0,0.0,50,0.00,,,0.00,WUHU21623XXSP,2013-02-19 13:11:00,
2013-02-19 07:16:00,6.3,-8.4,29.83,West,270,0.0,0.0,50,0.00,,,0.00,WUHU21623XXSP,2013-02-19 13:16:00,
2013-02-19 07:21:00,6.4,-8.3,29.83,SW,225,0.0,0.0,50,0.00,,,0.00,WUHU21623XXSP,2013-02-19 13:21:00,
2013-02-19 07:26:00,6.4,-8.3,29.83,SW,225,0.0,0.0,50,0.00,,,0.00,WUHU21623XXSP,2013-02-19 13:26:00,
2013-02-19 07:31:00,6.3,-8.4,29.83,West,270,0.0,0.0,50,0.00,,,0.00,WUHU21623XXSP,2013-02-19 13:31:00,
2013-02-19 07:36:00,6.4,-8.3,29.83,NW,315,0.0,0.0,50,0.00,,,0.00,WUHU21623XXSP,2013-02-19 13:36:00,
2013-02-19 07:41:00,6.3,-8.9,29.84,NW,315,0.0,0.0,49,0.00,,,0.00,WUHU21623XXSP,2013-02-19 13:41:00,
2013-02-19 07:46:00,6.3,-9.3,29.84,NNW,337,0.0,0.0,48,0.00,,,0.00,WUHU21623XXSP,2013-02-19 13:46:00,
2013-02-19 07:51:00,6.4,-9.5,29.84,WSW,247,0.0,0.0,48,0.00,,,0.00,WUHU21623XXSP,2013-02-19 13:51:00,
2013-02-19 07:56:00,6.1,-9.5,29.84,WSW,247,0.0,0.0,48,0.00,,,0.00,WUHU21623XXSP,2013-02-19 13:56:00,
2013-02-19 08:01:00,5.9,-10.1,29.85,West,270,0.0,0.0,47,0.00,,,0.00,WUHU21623XXSP,2013-02-19 14:01:00,
2013-02-19 08:06:00,5.9,-10.1,29.85,West,270,0.0,0.0,47,0.00,,,0.00,WUHU21623XXSP,2013-02-19 14:06:00,
2013-02-19 08:11:00,5.9,-10.1,29.85,WNW,292,0.0,0.0,47,0.00,,,0.00,WUHU21623XXSP,2013-02-19 14:11:00,
2013-02-19 08:16:00,6.1,-10.0,29.86,WSW,247,0.0,0.0,47,0.00,,,0.00,WUHU21623XXSP,2013-02-19 14:16:00,
2013-02-19 08:21:00,6.4,-9.6,29.86,West,270,0.0,0.0,47,0.00,,,0.00,WUHU21623XXSP,2013-02-19 14:21:00,
2013-02-19 08:26:00,6.8,-9.3,29.86,WSW,247,0.0,0.0,47,0.00,,,0.00,WUHU21623XXSP,2013-02-19 14:26:00,
2013-02-19 08:31:00,7.5,-8.7,29.86,WNW,292,0.0,0.0,47,0.00,,,0.00,WUHU21623XXSP,2013-02-19 14:31:00,
2013-02-19 08:36:00,7.7,-8.5,29.86,WNW,292,0.0,0.0,47,0.00,,,0.00,WUHU21623XXSP,2013-02-19 14:36:00,
2013-02-19 08:41:00,7.7,-8.5,29.86,WSW,247,0.0,0.0,47,0.00,,,0.00,WUHU21623XXSP,2013-02-19 14:41:00,
2013-02-19 08:46:00,7.5,-9.1,29.86,NW,315,0.0,0.0,46,0.00,,,0.00,WUHU21623XXSP,2013-02-19 14:46:00,
2013-02-19 08:51:00,7.5,-9.1,29.86,WNW,292,0.0,0.0,46,0.00,,,0.00,WUHU21623XXSP,2013-02-19 14:51:00,
2013-02-19 08:56:00,7.3,-9.7,29.87,NW,315,0.0,0.0,45,0.00,,,0.00,WUHU21623XXSP,2013-02-19 14:56:00,
2013-02-19 09:01:00,7.7,-9.4,29.87,WNW,292,0.0,0.0,45,0.00,,,0.00,WUHU21623XXSP,2013-02-19 15:01:00,
2013-02-19 09:06:00,8.2,-8.9,29.87,WNW,292,0.0,0.0,45,0.00,,,0.00,WUHU21623XXSP,2013-02-19 15:06:00,
2013-02-19 09:11:00,8.6,-8.6,29.88,West,270,0.0,0.0,45,0.00,,,0.00,WUHU21623XXSP,2013-02-19 15:11:00,
2013-02-19 09:16:00,8.4,-8.8,29.88,WSW,247,0.0,0.0,45,0.00,,,0.00,WUHU21623XXSP,2013-02-19 15:16:00,
2013-02-19 09:21:00,8.4,-9.2,29.88,WNW,292,0.0,0.0,44,0.00,,,0.00,WUHU21623XXSP,2013-02-19 15:21:00,
2013-02-19 09:26:00,8.8,-8.4,29.88,WNW,292,0.0,0.0,45,0.00,,,0.00,WUHU21623XXSP,2013-02-19 15:26:00,
2013-02-19 09:31:00,8.8,-8.4,29.88,WSW,247,0.0,0.0,45,0.00,,,0.00,WUHU21623XXSP,2013-02-19 15:31:00,
2013-02-19 09:36:00,8.8,-8.9,29.89,WSW,247,0.0,0.0,44,0.00,,,0.00,WUHU21623XXSP,2013-02-19 15:36:00,
2013-02-19 09:41:00,9.3,-8.8,29.89,NW,315,0.0,0.0,43,0.00,,,0.00,WUHU21623XXSP,2013-02-19 15:41:00,
2013-02-19 09:46:00,9.7,-8.5,29.89,WNW,292,0.0,0.0,43,0.00,,,0.00,WUHU21623XXSP,2013-02-19 15:46:00,
2013-02-19 09:51:00,9.9,-8.3,29.89,WSW,247,0.0,0.0,43,0.00,,,0.00,WUHU21623XXSP,2013-02-19 15:51:00,
2013-02-19 09:56:00,10.0,-8.6,29.90,WSW,247,0.0,0.0,42,0.00,,,0.00,WUHU21623XXSP,2013-02-19 15:56:00,
2013-02-19 10:01:00,10.8,-8.0,29.90,WNW,292,0.0,0.0,42,0.00,,,0.00,WUHU21623XXSP,2013-02-19 16:01:00,
2013-02-19 10:06:00,11.1,-8.1,29.90,NW,315,0.0,0.0,41,0.00,,,0.00,WUHU21623XXSP,2013-02-19 16:06:00,
2013-02-19 10:11:00,11.7,-8.4,29.90,WSW,247,0.0,0.0,40,0.00,,,0.00,WUHU21623XXSP,2013-02-19 16:11:00,
2013-02-19 10:16:00,12.2,-8.2,29.90,SW,225,0.0,0.0,39,0.00,,,0.00,WUHU21623XXSP,2013-02-19 16:16:00,
2013-02-19 10:21:00,12.6,-7.9,29.90,West,270,0.0,0.0,39,0.00,,,0.00,WUHU21623XXSP,2013-02-19 16:21:00,
2013-02-19 10:26:00,12.7,-7.7,29.91,West,270,0.0,0.0,39,0.00,,,0.00,WUHU21623XXSP,2013-02-19 16:26:00,
2013-02-19 10:31:00,12.6,-8.4,29.91,WNW,292,0.0,0.0,38,0.00,,,0.00,WUHU21623XXSP,2013-02-19 16:31:00,
2013-02-19 10:36:00,11.8,-9.7,29.91,NW,315,0.0,0.0,37,0.00,,,0.00,WUHU21623XXSP,2013-02-19 16:36:00,
2013-02-19 10:41:00,11.7,-9.2,29.91,WNW,292,0.0,0.0,38,0.00,,,0.00,WUHU21623XXSP,2013-02-19 16:41:00,
2013-02-19 10:46:00,11.7,-9.2,29.91,WNW,292,0.0,0.0,38,0.00,,,0.00,WUHU21623XXSP,2013-02-19 16:46:00,
2013-02-19 10:51:00,12.0,-8.9,29.92,North,0,0.0,0.0,38,0.00,,,0.00,WUHU21623XXSP,2013-02-19 16:51:00,
2013-02-19 10:56:00,12.4,-8.6,29.92,WSW,247,0.0,0.0,38,0.00,,,0.00,WUHU21623XXSP,2013-02-19 16:56:00,
2013-02-19 11:01:00,11.8,-9.2,29.92,WSW,247,0.0,0.0,36,0.00,,,0.00,WUHU21623XXSP,2013-02-19 17:01:00,
2013-02-19 11:06:00,12.9,-8.7,29.92,West,270,0.0,0.0,37,0.00,,,0.00,WUHU21623XXSP,2013-02-19 17:06:00,
2013-02-19 11:11:00,13.1,-8.5,29.93,WNW,292,0.0,0.0,37,0.00,,,0.00,WUHU21623XXSP,2013-02-19 17:11:00,
2013-02-19 11:16:00,13.1,-9.1,29.93,WNW,292,0.0,0.0,36,0.00,,,0.00,WUHU21623XXSP,2013-02-19 17:16:00,
2013-02-19 11:21:00,14.2,-7.5,29.93,WNW,292,0.0,0.0,37,0.00,,,0.00,WUHU21623XXSP,2013-02-19 17:21:00,
2013-02-19 11:26:00,13.6,-8.0,29.93,WSW,247,0.0,0.0,37,0.00,,,0.00,WUHU21623XXSP,2013-02-19 17:26:00,
2013-02-19 11:31:00,13.6,-8.2,29.93,WSW,247,0.0,0.0,37,0.00,,,0.00,WUHU21623XXSP,2013-02-19 17:31:00,
2013-02-19 11:36:00,14.4,-8.0,29.93,NW,315,0.0,0.0,36,0.00,,,0.00,WUHU21623XXSP,2013-02-19 17:36:00,
2013-02-19 11:41:00,14.2,-9.3,29.93,West,270,0.0,0.0,34,0.00,,,0.00,WUHU21623XXSP,2013-02-19 17:41:00,
2013-02-19 11:46:00,14.4,-8.5,29.93,West,270,0.0,0.0,35,0.00,,,0.00,WUHU21623XXSP,2013-02-19 17:46:00,
2013-02-19 11:51:00,14.2,-9.3,29.93,WSW,247,0.0,0.0,34,0.00,,,0.00,WUHU21623XXSP,2013-02-19 17:51:00,
2013-02-19 11:56:00,14.4,-9.1,29.94,WNW,292,0.0,0.0,34,0.00,,,0.00,WUHU21623XXSP,2013-02-19 17:56:00,
2013-02-19 12:01:00,14.7,-8.8,29.94,West,270,0.0,0.0,34,0.00,,,0.00,WUHU21623XXSP,2013-02-19 18:01:00,
2013-02-19 12:06:00,15.3,-9.5,29.94,North,0,0.0,0.0,32,0.00,,,0.00,WUHU21623XXSP,2013-02-19 18:06:00,
2013-02-19 12:11:00,15.1,-12.4,29.94,WSW,247,0.0,0.0,28,0.00,,,0.00,WUHU21623XXSP,2013-02-19 18:11:00,
2013-02-19 12:16:00,14.7,-16.7,29.94,WSW,247,0.0,0.0,23,0.00,,,0.00,WUHU21623XXSP,2013-02-19 18:16:00,
2013-02-19 12:21:00,14.7,-15.9,29.94,WNW,292,0.0,0.0,24,0.00,,,0.00,WUHU21623XXSP,2013-02-19 18:21:00,
2013-02-19 12:26:00,14.7,-14.3,29.94,West,270,0.0,0.0,26,0.00,,,0.00,WUHU21623XXSP,2013-02-19 18:26:00,
2013-02-19 12:31:00,14.9,-14.1,29.94,WNW,292,0.0,0.0,26,0.00,,,0.00,WUHU21623XXSP,2013-02-19 18:31:00,
2013-02-19 12:36:00,15.3,-13.8,29.94,WSW,247,0.0,0.0,26,0.00,,,0.00,WUHU21623XXSP,2013-02-19 18:36:00,
2013-02-19 12:41:00,15.1,-15.6,29.95,WSW,247,0.0,0.0,24,0.00,,,0.00,WUHU21623XXSP,2013-02-19 18:41:00,
2013-02-19 12:46:00,16.0,-11.6,29.95,West,270,0.0,0.0,28,0.00,,,0.00,WUHU21623XXSP,2013-02-19 18:46:00,
2013-02-19 12:51:00,15.3,-19.6,29.95,West,270,0.0,0.0,19,0.00,,,0.00,WUHU21623XXSP,2013-02-19 18:51:00,
2013-02-19 12:56:00,15.1,-19.7,29.95,WNW,292,0.0,0.0,19,0.00,,,0.00,WUHU21623XXSP,2013-02-19 18:56:00,
2013-02-19 13:01:00,14.7,-19.1,29.95,WNW,292,0.0,0.0,20,0.00,,,0.00,WUHU21623XXSP,2013-02-19 19:01:00,
2013-02-19 13:06:00,14.7,-19.1,29.95,West,270,0.0,0.0,20,0.00,,,0.00,WUHU21623XXSP,2013-02-19 19:06:00,
2013-02-19 13:11:00,14.5,-18.4,29.95,WSW,247,0.0,0.0,21,0.00,,,0.00,WUHU21623XXSP,2013-02-19 19:11:00,
2013-02-19 13:16:00,14.4,-17.0,29.96,WSW,247,0.0,0.0,23,0.00,,,0.00,WUHU21623XXSP,2013-02-19 19:16:00,
2013-02-19 13:21:00,13.6,-17.6,29.96,West,270,0.0,0.0,23,0.00,,,0.00,WUHU21623XXSP,2013-02-19 19:21:00,
2013-02-19 13:26:00,14.2,-11.6,29.95,West,270,0.0,0.0,30,0.00,,,0.00,WUHU21623XXSP,2013-02-19 19:26:00,
2013-02-19 13:31:00,14.9,-8.6,29.95,WSW,247,0.0,0.0,34,0.00,,,0.00,WUHU21623XXSP,2013-02-19 19:31:00,
2013-02-19 13:36:00,15.1,-8.5,29.96,WNW,292,0.0,0.0,34,0.00,,,0.00,WUHU21623XXSP,2013-02-19 19:36:00,
2013-02-19 13:41:00,15.4,-8.1,29.96,NW,315,0.0,0.0,34,0.00,,,0.00,WUHU21623XXSP,2013-02-19 19:41:00,
2013-02-19 13:46:00,15.4,-9.9,29.96,WNW,292,0.0,0.0,31,0.00,,,0.00,WUHU21623XXSP,2013-02-19 19:46:00,
2013-02-19 13:51:00,15.3,-10.6,29.96,NNW,337,0.0,0.0,30,0.00,,,0.00,WUHU21623XXSP,2013-02-19 19:51:00,
2013-02-19 13:56:00,14.7,-12.7,29.96,West,270,0.0,0.0,28,0.00,,,0.00,WUHU21623XXSP,2013-02-19 19:56:00,
2013-02-19 14:01:00,15.3,-8.9,29.96,WSW,247,0.0,0.0,33,0.00,,,0.00,WUHU21623XXSP,2013-02-19 20:01:00,
2013-02-19 14:06:00,15.4,-8.1,29.96,WSW,247,0.0,0.0,34,0.00,,,0.00,WUHU21623XXSP,2013-02-19 20:06:00,
2013-02-19 14:11:00,15.3,-8.9,29.96,WSW,247,0.0,0.0,33,0.00,,,0.00,WUHU21623XXSP,2013-02-19 20:11:00,
2013-02-19 14:16:00,16.0,-7.1,29.97,NW,315,0.0,0.0,35,0.00,,,0.00,WUHU21623XXSP,2013-02-19 20:16:00,
2013-02-19 14:21:00,15.6,-8.0,29.97,WNW,292,0.0,0.0,34,0.00,,,0.00,WUHU21623XXSP,2013-02-19 20:21:00,
2013-02-19 14:26:00,15.6,-8.0,29.97,West,270,0.0,0.0,34,0.00,,,0.00,WUHU21623XXSP,2013-02-19 20:26:00,
2013-02-19 14:31:00,15.4,-8.1,29.98,WNW,292,0.0,0.0,34,0.00,,,0.00,WUHU21623XXSP,2013-02-19 20:31:00,
2013-02-19 14:36:00,15.3,-8.9,29.98,NNW,337,0.0,0.0,33,0.00,,,0.00,WUHU21623XXSP,2013-02-19 20:36:00,
2013-02-19 14:41:00,14.9,-9.2,29.98,North,0,0.0,0.0,33,0.00,,,0.00,WUHU21623XXSP,2013-02-19 20:41:00,
2013-02-19 14:46:00,15.1,-8.5,29.98,SW,225,0.0,0.0,34,0.00,,,0.00,WUHU21623XXSP,2013-02-19 20:46:00,
2013-02-19 14:51:00,14.9,-8.1,29.99,West,270,0.0,0.0,35,0.00,,,0.00,WUHU21623XXSP,2013-02-19 20:51:00,
2013-02-19 14:56:00,15.1,-7.9,29.98,West,270,0.0,0.0,35,0.00,,,0.00,WUHU21623XXSP,2013-02-19 20:56:00,
2013-02-19 15:01:00,14.5,-8.4,29.99,NNW,337,0.0,0.0,35,0.00,,,0.00,WUHU21623XXSP,2013-02-19 21:01:00,
2013-02-19 15:06:00,14.5,-7.8,29.99,WNW,292,0.0,0.0,36,0.00,,,0.00,WUHU21623XXSP,2013-02-19 21:06:00,
2013-02-19 15:11:00,14.7,-7.6,29.99,WSW,247,0.0,0.0,36,0.00,,,0.00,WUHU21623XXSP,2013-02-19 21:11:00,
2013-02-19 15:16:00,14.9,-7.5,29.99,West,270,0.0,0.0,36,0.00,,,0.00,WUHU21623XXSP,2013-02-19 21:16:00,
2013-02-19 15:21:00,15.3,-6.6,29.99,WNW,292,0.0,0.0,37,0.00,,,0.00,WUHU21623XXSP,2013-02-19 21:21:00,
2013-02-19 15:26:00,16.0,-5.9,30.00,SW,225,0.0,0.0,37,0.00,,,0.00,WUHU21623XXSP,2013-02-19 21:26:00,
2013-02-19 15:31:00,16.2,-5.2,30.00,WSW,247,0.0,0.0,38,0.00,,,0.00,WUHU21623XXSP,2013-02-19 21:31:00,
2013-02-19 15:36:00,16.2,-5.8,30.00,NNE,22,0.0,0.0,37,0.00,,,0.00,WUHU21623XXSP,2013-02-19 21:36:00,
2013-02-19 15:41:00,16.2,-6.3,30.00,WNW,292,0.0,0.0,36,0.00,,,0.00,WUHU21623XXSP,2013-02-19 21:41:00,
2013-02-19 15:46:00,15.6,-7.4,30.00,NW,315,0.0,0.0,35,0.00,,,0.00,WUHU21623XXSP,2013-02-19 21:46:00,
2013-02-19 15:51:00,15.4,-7.6,30.01,WNW,292,0.0,0.0,35,0.00,,,0.00,WUHU21623XXSP,2013-02-19 21:51:00,
2013-02-19 15:56:00,15.4,-7.6,30.01,West,270,0.0,0.0,35,0.00,,,0.00,WUHU21623XXSP,2013-02-19 21:56:00,
2013-02-19 16:01:00,15.4,-7.6,30.01,West,270,0.0,0.0,35,0.00,,,0.00,WUHU21623XXSP,2013-02-19 22:01:00,
2013-02-19 16:06:00,15.4,-7.0,30.01,West,270,0.0,0.0,36,0.00,,,0.00,WUHU21623XXSP,2013-02-19 22:06:00,
2013-02-19 16:11:00,16.0,-6.5,30.01,WNW,292,0.0,0.0,36,0.00,,,0.00,WUHU21623XXSP,2013-02-19 22:11:00,
2013-02-19 16:16:00,16.0,-6.5,30.01,NW,315,0.0,0.0,36,0.00,,,0.00,WUHU21623XXSP,2013-02-19 22:16:00,
2013-02-19 16:21:00,16.0,-6.5,30.02,NW,315,0.0,0.0,36,0.00,,,0.00,WUHU21623XXSP,2013-02-19 22:21:00,
2013-02-19 16:26:00,16.0,-6.5,30.02,WNW,292,0.0,0.0,36,0.00,,,0.00,WUHU21623XXSP,2013-02-19 22:26:00,
2013-02-19 16:31:00,15.4,-7.0,30.02,WNW,292,0.0,0.0,36,0.00,,,0.00,WUHU21623XXSP,2013-02-19 22:31:00,
2013-02-19 16:36:00,15.3,-7.1,30.02,NW,315,0.0,0.0,36,0.00,,,0.00,WUHU21623XXSP,2013-02-19 22:36:00,
2013-02-19 16:41:00,14.7,-8.1,30.03,West,270,0.0,0.0,35,0.00,,,0.00,WUHU21623XXSP,2013-02-19 22:41:00,
2013-02-19 16:46:00,14.4,-8.5,30.03,WSW,247,0.0,0.0,35,0.00,,,0.00,WUHU21623XXSP,2013-02-19 22:46:00,
2013-02-19 16:51:00,14.0,-8.9,30.04,SW,225,0.0,0.0,35,0.00,,,0.00,WUHU21623XXSP,2013-02-19 22:51:00,
2013-02-19 16:56:00,13.1,-9.1,30.03,NW,315,0.0,0.0,36,0.00,,,0.00,WUHU21623XXSP,2013-02-19 22:56:00,
2013-02-19 17:01:00,12.7,-9.4,30.04,NW,315,0.0,0.0,36,0.00,,,0.00,WUHU21623XXSP,2013-02-19 23:01:00,
2013-02-19 17:06:00,12.6,-9.0,30.04,WSW,247,0.0,0.0,37,0.00,,,0.00,WUHU21623XXSP,2013-02-19 23:06:00,
2013-02-19 17:11:00,12.4,-8.4,30.04,NW,315,0.0,0.0,38,0.00,,,0.00,WUHU21623XXSP,2013-02-19 23:11:00,
2013-02-19 17:16:00,11.8,-9.1,30.04,West,270,0.0,0.0,38,0.00,,,0.00,WUHU21623XXSP,2013-02-19 23:16:00,
2013-02-19 17:21:00,11.7,-9.2,30.04,West,270,0.0,0.0,38,0.00,,,0.00,WUHU21623XXSP,2013-02-19 23:21:00,
2013-02-19 17:26:00,11.5,-8.2,30.05,NW,315,0.0,0.0,40,0.00,,,0.00,WUHU21623XXSP,2013-02-19 23:26:00,
2013-02-19 17:31:00,11.7,-8.1,30.05,WNW,292,0.0,0.0,40,0.00,,,0.00,WUHU21623XXSP,2013-02-19 23:31:00,
2013-02-19 17:36:00,11.3,-8.4,30.05,NW,315,0.0,0.0,40,0.00,,,0.00,WUHU21623XXSP,2013-02-19 23:36:00,
2013-02-19 17:41:00,11.1,-8.6,30.05,WSW,247,0.0,0.0,40,0.00,,,0.00,WUHU21623XXSP,2013-02-19 23:41:00,
2013-02-19 17:46:00,11.1,-8.1,30.06,NW,315,0.0,0.0,41,0.00,,,0.00,WUHU21623XXSP,2013-02-19 23:46:00,
2013-02-19 17:51:00,10.8,-8.4,30.06,WNW,292,0.0,0.0,41,0.00,,,0.00,WUHU21623XXSP,2013-02-19 23:51:00,
2013-02-19 17:56:00,10.6,-8.6,30.06,WNW,292,0.0,0.0,41,0.00,,,0.00,WUHU21623XXSP,2013-02-19 23:56:00,
2013-02-19 18:01:00,10.6,-8.6,30.06,WSW,247,0.0,0.0,41,0.00,,,0.00,WUHU21623XXSP,2013-02-20 00:01:00,
2013-02-19 18:06:00,10.4,-8.3,30.07,WSW,247,0.0,0.0,42,0.00,,,0.00,WUHU21623XXSP,2013-02-20 00:06:00,
2013-02-19 18:11:00,10.4,-8.3,30.07,WNW,292,0.0,0.0,42,0.00,,,0.00,WUHU21623XXSP,2013-02-20 00:11:00,
2013-02-19 18:16:00,10.2,-8.5,30.07,WSW,247,0.0,0.0,42,0.00,,,0.00,WUHU21623XXSP,2013-02-20 00:16:00,
2013-02-19 18:21:00,10.0,-8.2,30.08,West,270,0.0,0.0,43,0.00,,,0.00,WUHU21623XXSP,2013-02-20 00:21:00,
2013-02-19 18:26:00,10.0,-8.2,30.08,WNW,292,0.0,0.0,43,0.00,,,0.00,WUHU21623XXSP,2013-02-20 00:26:00,
2013-02-19 18:31:00,10.0,-8.2,30.09,WNW,292,0.0,0.0,43,0.00,,,0.00,WUHU21623XXSP,2013-02-20 00:31:00,
2013-02-19 18:36:00,9.9,-7.9,30.09,West,270,0.0,0.0,44,0.00,,,0.00,WUHU21623XXSP,2013-02-20 00:36:00,
2013-02-19 18:41:00,9.9,-7.9,30.09,NNW,337,0.0,0.0,44,0.00,,,0.00,WUHU21623XXSP,2013-02-20 00:41:00,
2013-02-19 18:46:00,9.9,-7.9,30.09,NW,315,0.0,0.0,44,0.00,,,0.00,WUHU21623XXSP,2013-02-20 00:46:00,
2013-02-19 18:51:00,9.9,-7.9,30.09,WNW,292,0.0,0.0,44,0.00,,,0.00,WUHU21623XXSP,2013-02-20 00:51:00,
2013-02-19 18:56:00,9.9,-7.9,30.09,NW,315,0.0,0.0,44,0.00,,,0.00,WUHU21623XXSP,2013-02-20 00:56:00,
2013-02-19 19:01:00,9.7,-8.0,30.09,NW,315,0.0,0.0,44,0.00,,,0.00,WUHU21623XXSP,2013-02-20 01:01:00,
2013-02-19 19:06:00,9.5,-8.2,30.09,NNW,337,0.0,0.0,44,0.00,,,0.00,WUHU21623XXSP,2013-02-20 01:06:00,
2013-02-19 19:11:00,9.5,-8.7,30.09,NW,315,0.0,0.0,43,0.00,,,0.00,WUHU21623XXSP,2013-02-20 01:11:00,
2013-02-19 19:16:00,9.3,-8.8,30.09,NW,315,0.0,0.0,43,0.00,,,0.00,WUHU21623XXSP,2013-02-20 01:16:00,
2013-02-19 19:21:00,9.3,-8.7,30.09,NW,315,0.0,0.0,43,0.00,,,0.00,WUHU21623XXSP,2013-02-20 01:21:00,
2013-02-19 19:26:00,9.3,-8.8,30.09,NW,315,0.0,0.0,43,0.00,,,0.00,WUHU21623XXSP,2013-02-20 01:26:00,
2013-02-19 19:31:00,9.0,-9.2,30.10,NNW,337,0.0,0.0,43,0.00,,,0.00,WUHU21623XXSP,2013-02-20 01:31:00,
2013-02-19 19:36:00,9.0,-9.2,30.10,WNW,292,0.0,0.0,43,0.00,,,0.00,WUHU21623XXSP,2013-02-20 01:36:00,
2013-02-19 19:41:00,9.0,-9.2,30.11,WNW,292,0.0,0.0,43,0.00,,,0.00,WUHU21623XXSP,2013-02-20 01:41:00,
2013-02-19 19:46:00,8.8,-9.3,30.11,NNE,22,0.0,0.0,43,0.00,,,0.00,WUHU21623XXSP,2013-02-20 01:46:00,
2013-02-19 19:51:00,8.8,-9.3,30.11,NW,315,0.0,0.0,43,0.00,,,0.00,WUHU21623XXSP,2013-02-20 01:51:00,
2013-02-19 19:56:00,8.6,-9.5,30.11,NW,315,0.0,0.0,43,0.00,,,0.00,WUHU21623XXSP,2013-02-20 01:56:00,
2013-02-19 20:01:00,8.2,-9.8,30.12,WNW,292,0.0,0.0,43,0.00,,,0.00,WUHU21623XXSP,2013-02-20 02:01:00,
2013-02-19 20:06:00,8.2,-9.8,30.12,WSW,247,0.0,0.0,43,0.00,,,0.00,WUHU21623XXSP,2013-02-20 02:06:00,
2013-02-19 20:11:00,7.9,-10.6,30.13,NNW,337,0.0,0.0,42,0.00,,,0.00,WUHU21623XXSP,2013-02-20 02:11:00,
2013-02-19 20:16:00,7.9,-10.6,30.13,NW,315,0.0,0.0,42,0.00,,,0.00,WUHU21623XXSP,2013-02-20 02:16:00,
2013-02-19 20:21:00,7.7,-10.8,30.14,NNW,337,0.0,0.0,42,0.00,,,0.00,WUHU21623XXSP,2013-02-20 02:21:00,
2013-02-19 20:26:00,7.5,-10.9,30.14,NNE,22,0.0,0.0,42,0.00,,,0.00,WUHU21623XXSP,2013-02-20 02:26:00,
2013-02-19 20:31:00,7.2,-11.2,30.14,WNW,292,0.0,0.0,42,0.00,,,0.00,WUHU21623XXSP,2013-02-20 02:31:00,
2013-02-19 20:36:00,7.0,-11.4,30.14,NW,315,0.0,0.0,42,0.00,,,0.00,WUHU21623XXSP,2013-02-20 02:36:00,
2013-02-19 20:41:00,6.8,-11.4,30.14,NW,315,0.0,0.0,42,0.00,,,0.00,WUHU21623XXSP,2013-02-20 02:41:00,
2013-02-19 20:46:00,7.0,-11.8,30.15,WNW,292,0.0,0.0,41,0.00,,,0.00,WUHU21623XXSP,2013-02-20 02:46:00,
2013-02-19 20:51:00,6.8,-12.0,30.15,WNW,292,0.0,0.0,41,0.00,,,0.00,WUHU21623XXSP,2013-02-20 02:51:00,
2013-02-19 20:56:00,6.6,-12.2,30.15,WNW,292,0.0,0.0,41,0.00,,,0.00,WUHU21623XXSP,2013-02-20 02:56:00,
2013-02-19 21:01:00,6.3,-12.5,30.15,WNW,292,0.0,0.0,41,0.00,,,0.00,WUHU21623XXSP,2013-02-20 03:01:00,
2013-02-19 21:06:00,6.3,-12.5,30.15,WNW,292,0.0,0.0,41,0.00,,,0.00,WUHU21623XXSP,2013-02-20 03:06:00,
2013-02-19 21:11:00,6.3,-12.5,30.16,WNW,292,0.0,0.0,41,0.00,,,0.00,WUHU21623XXSP,2013-02-20 03:11:00,
2013-02-19 21:16:00,5.5,-13.4,30.15,NW,315,0.0,0.0,40,0.00,,,0.00,WUHU21623XXSP,2013-02-20 03:16:00,
2013-02-19 21:21:00,5.7,-13.4,30.16,NW,315,0.0,0.0,40,0.00,,,0.00,WUHU21623XXSP,2013-02-20 03:21:00,
2013-02-19 21:26:00,5.4,-13.8,30.16,NNW,337,0.0,0.0,40,0.00,,,0.00,WUHU21623XXSP,2013-02-20 03:26:00,
2013-02-19 21:31:00,5.2,-13.9,30.16,West,270,0.0,0.0,40,0.00,,,0.00,WUHU21623XXSP,2013-02-20 03:31:00,
2013-02-19 21:36:00,5.2,-13.9,30.16,NW,315,0.0,0.0,40,0.00,,,0.00,WUHU21623XXSP,2013-02-20 03:36:00,
2013-02-19 21:41:00,5.2,-13.9,30.17,WNW,292,0.0,0.0,40,0.00,,,0.00,WUHU21623XXSP,2013-02-20 03:41:00,
2013-02-19 21:46:00,5.0,-14.1,30.16,NW,315,0.0,0.0,40,0.00,,,0.00,WUHU21623XXSP,2013-02-20 03:46:00,
2013-02-19 21:51:00,5.0,-14.1,30.17,NW,315,0.0,0.0,40,0.00,,,0.00,WUHU21623XXSP,2013-02-20 03:51:00,
2013-02-19 21:56:00,5.0,-14.1,30.17,North,0,0.0,0.0,40,0.00,,,0.00,WUHU21623XXSP,2013-02-20 03:56:00,
2013-02-19 22:01:00,4.8,-14.2,30.17,NNW,337,0.0,0.0,40,0.00,,,0.00,WUHU21623XXSP,2013-02-20 04:01:00,
2013-02-19 22:06:00,4.6,-14.4,30.17,West,270,0.0,0.0,40,0.00,,,0.00,WUHU21623XXSP,2013-02-20 04:06:00,
2013-02-19 22:11:00,4.6,-14.4,30.17,WNW,292,0.0,0.0,40,0.00,,,0.00,WUHU21623XXSP,2013-02-20 04:11:00,
2013-02-19 22:16:00,4.5,-14.6,30.17,WNW,292,0.0,0.0,40,0.00,,,0.00,WUHU21623XXSP,2013-02-20 04:16:00,
2013-02-19 22:21:00,4.5,-14.6,30.18,NW,315,0.0,0.0,40,0.00,,,0.00,WUHU21623XXSP,2013-02-20 04:21:00,
2013-02-19 22:26:00,4.3,-14.7,30.17,NW,315,0.0,0.0,40,0.00,,,0.00,WUHU21623XXSP,2013-02-20 04:26:00,
2013-02-19 22:31:00,4.3,-14.3,30.18,NNW,337,0.0,0.0,41,0.00,,,0.00,WUHU21623XXSP,2013-02-20 04:31:00,
2013-02-19 22:36:00,4.1,-14.9,30.17,WNW,292,0.0,0.0,40,0.00,,,0.00,WUHU21623XXSP,2013-02-20 04:36:00,
2013-02-19 22:41:00,4.1,-14.5,30.18,NW,315,0.0,0.0,41,0.00,,,0.00,WUHU21623XXSP,2013-02-20 04:41:00,
2013-02-19 22:46:00,4.1,-14.9,30.18,NW,315,0.0,0.0,40,0.00,,,0.00,WUHU21623XXSP,2013-02-20 04:46:00,
2013-02-19 22:51:00,4.1,-14.5,30.18,WNW,292,0.0,0.0,41,0.00,,,0.00,WUHU21623XXSP,2013-02-20 04:51:00,
2013-02-19 22:56:00,3.9,-15.1,30.19,NNW,337,0.0,0.0,40,0.00,,,0.00,WUHU21623XXSP,2013-02-20 04:56:00,
2013-02-19 23:00:00,3.9,-14.6,30.18,NW,315,0.0,0.0,41,0.00,,,0.00,WUHU21623XXSP,2013-02-20 05:00:00,
2013-02-19 23:05:00,3.9,-14.6,30.19,WSW,247,0.0,0.0,41,0.00,,,0.00,WUHU21623XXSP,2013-02-20 05:05:00,
2013-02-19 23:10:00,3.7,-14.8,30.19,WNW,292,0.0,0.0,41,0.00,,,0.00,WUHU21623XXSP,2013-02-20 05:10:00,
2013-02-19 23:15:00,3.9,-14.6,30.20,NNW,337,0.0,0.0,41,0.00,,,0.00,WUHU21623XXSP,2013-02-20 05:15:00,
2013-02-19 23:20:00,3.6,-15.4,30.20,NW,315,0.0,0.0,40,0.00,,,0.00,WUHU21623XXSP,2013-02-20 05:20:00,
2013-02-19 23:25:00,3.6,-14.9,30.21,West,270,0.0,0.0,41,0.00,,,0.00,WUHU21623XXSP,2013-02-20 05:25:00,
2013-02-19 23:30:00,3.6,-14.9,30.21,NW,315,0.0,0.0,41,0.00,,,0.00,WUHU21623XXSP,2013-02-20 05:30:00,
2013-02-19 23:35:00,3.6,-14.9,30.21,NW,315,0.0,0.0,41,0.00,,,0.00,WUHU21623XXSP,2013-02-20 05:35:00,
2013-02-19 23:40:00,3.6,-14.9,30.21,WNW,292,0.0,0.0,41,0.00,,,0.00,WUHU21623XXSP,2013-02-20 05:40:00,
2013-02-19 23:45:00,3.4,-15.1,30.21,SW,225,0.0,0.0,41,0.00,,,0.00,WUHU21623XXSP,2013-02-20 05:45:00,
2013-02-19 23:50:00,3.2,-15.3,30.22,WNW,292,0.0,0.0,41,0.00,,,0.00,WUHU21623XXSP,2013-02-20 05:50:00,
2013-02-19 23:55:00,3.2,-15.3,30.22,WNW,292,0.0,0.0,41,0.00,,,0.00,WUHU21623XXSP,2013-02-20 05:55:00,